Firmament Ace — C6VP5 — position and weather

sailwx.info

Track history (hours):
 
Tides and Currents Weather Stations Pressure Air Temp Water Temp Dewpoint Dewpoint Depression Visibility Wind Speed Wind Dir Waves Ship Positions

Firmament Ace

Last reported at 2017-Oct-13 12:33 UTC. Time now 2017-Oct-17 01:18 UTC.
Position N 36°07' E 014°50'.

Length 200 m; beam 32.3 m.

Type: Cargo ship. MMSI: 309656000.

Date/timePositionNaut miles runAvg speedWind from/ knotsBaromVisibWave heightAir tempDewpointWater temp
2017-Oct-13 12:33N 36°07' E 014°50'416.9
2017-Oct-13 12:17N 36°08' E 014°45'516.8
2017-Oct-13 12:00N 36°09' E 014°39'816.8
2017-Oct-13 11:30N 36°11' E 014°29'816.6
2017-Oct-13 11:00N 36°14' E 014°19'816.6
2017-Oct-13 10:30N 36°17' E 014°09'916.9
2017-Oct-13 10:00N 36°20' E 013°60'816.7
2017-Oct-13 09:30N 36°23' E 013°50'816.7
2017-Oct-13 09:00N 36°26' E 013°40'816.8
2017-Oct-13 08:30N 36°29' E 013°31'53516.7
2017-Oct-12 00:29N 37°04' E 002°25'816.9
2017-Oct-12 00:00N 37°03' E 002°15'917.0
2017-Oct-11 23:29N 37°01' E 002°04'817.1
2017-Oct-11 23:00N 36°59' E 001°54'817.0
2017-Oct-11 22:30N 36°57' E 001°43'1616.8
2017-Oct-11 21:33N 36°53' E 001°24'116.9
2017-Oct-11 21:30N 36°53' E 001°23'816.6
2017-Oct-11 21:00N 36°51' E 001°13'1016.4
2017-Oct-11 20:24N 36°48' E 001°01'615.9
2017-Oct-11 20:00N 36°47' E 000°53'816.6
2017-Oct-11 19:30N 36°45' E 000°43'1218.0
2017-Oct-11 18:49N 36°42' E 000°28'516.7
2017-Oct-11 18:30N 36°42' E 000°22'816.8
2017-Oct-11 18:00N 36°40' E 000°12'1016.8
2017-Oct-11 17:25N 36°37' W 000°00'816.8
2017-Oct-11 16:55N 36°35' W 000°11'28516.8
2017-Oct-10 23:59N 35°54' W 005°60'3316.0
2017-Oct-10 21:56N 35°55' W 006°40'715.9
2017-Oct-10 21:30N 35°56' W 006°49'816.0
2017-Oct-10 21:00N 35°56' W 006°59'816.4
2017-Oct-10 20:30N 35°58' W 007°09'918.5
2017-Oct-10 20:00N 35°60' W 007°20'817.1
2017-Oct-10 19:30N 36°02' W 007°30'816.4
2017-Oct-10 19:00N 36°03' W 007°40'816.4
2017-Oct-10 18:30N 36°05' W 007°50'816.2
2017-Oct-10 18:00N 36°07' W 007°60'816.1
2017-Oct-10 17:30N 36°08' W 008°09'816.4
2017-Oct-10 17:01N 36°10' W 008°19'816.3
2017-Oct-10 16:30N 36°11' W 008°29'816.3
2017-Oct-10 16:00N 36°13' W 008°39'816.7
2017-Oct-10 15:30N 36°15' W 008°49'916.9
2017-Oct-10 15:00N 36°16' W 008°60'1716.7
2017-Oct-10 14:00N 36°20' W 009°20'917.1
2017-Oct-10 13:30N 36°22' W 009°30'816.6
2017-Oct-10 13:01N 36°24' W 009°40'816.6
2017-Oct-10 12:30N 36°25' W 009°50'816.6
2017-Oct-10 12:00N 36°27' W 010°00'816.6
2017-Oct-10 11:30N 36°31' W 010°10'816.8
2017-Oct-10 11:00N 36°34' W 010°20'816.6
2017-Oct-10 10:30N 36°36' W 010°29'917.0
2017-Oct-10 10:00N 36°39' W 010°39'917.2
2017-Oct-10 09:31N 36°42' W 010°49'917.3
2017-Oct-10 09:00N 36°45' W 010°60'816.9
2017-Oct-10 08:30N 36°47' W 011°10'816.8
2017-Oct-10 08:00N 36°50' W 011°20'816.6
2017-Oct-10 07:30N 36°52' W 011°30'918.3
2017-Oct-10 07:00N 36°55' W 011°41'816.6
2017-Oct-10 06:30N 36°59' W 011°50'816.4
2017-Oct-10 06:01N 37°02' W 011°59'816.4
2017-Oct-10 05:31N 37°04' W 012°09'816.8
2017-Oct-10 05:00N 37°07' W 012°19'816.7
2017-Oct-10 04:30N 37°10' W 012°29'816.6
2017-Oct-10 04:00N 37°12' W 012°39'816.1
2017-Oct-10 03:30N 37°16' W 012°48'816.4
2017-Oct-10 03:00N 37°19' W 012°57'816.3
2017-Oct-10 02:30N 37°22' W 013°07'816.2
2017-Oct-10 02:00N 37°25' W 013°17'916.5
2017-Oct-10 01:28N 37°28' W 013°27'816.6
2017-Oct-10 01:00N 37°30' W 013°36'1116.7
2017-Oct-10 00:22N 37°34' W 013°49'617.0
2017-Oct-10 00:00N 37°36' W 013°56'817.0
2017-Oct-09 23:30N 37°39' W 014°06'816.7
2017-Oct-09 23:00N 37°42' W 014°16'916.5
2017-Oct-09 22:27N 37°45' W 014°27'716.4
2017-Oct-09 22:00N 37°47' W 014°36'816.5
2017-Oct-09 21:30N 37°50' W 014°46'816.7
2017-Oct-09 21:00N 37°53' W 014°56'816.5
2017-Oct-09 20:30N 37°56' W 015°06'918.2
2017-Oct-09 19:59N 37°58' W 015°17'816.9
2017-Oct-09 19:30N 38°01' W 015°27'816.4
2017-Oct-09 19:00N 38°03' W 015°37'816.3
2017-Oct-09 18:30N 38°05' W 015°47'816.1
2017-Oct-09 18:00N 38°08' W 015°56'816.2
2017-Oct-09 17:30N 38°10' W 016°06'816.4
2017-Oct-09 17:00N 38°12' W 016°16'816.5
2017-Oct-09 16:31N 38°15' W 016°26'816.6
2017-Oct-09 16:00N 38°17' W 016°37'816.5
2017-Oct-09 15:30N 38°19' W 016°47'2116.4
2017-Oct-09 14:13N 38°26' W 017°12'2316.5
2017-Oct-09 12:50N 38°32' W 017°41'616.3
2017-Oct-09 12:29N 38°34' W 017°47'816.4
2017-Oct-09 12:00N 38°36' W 017°57'916.6
2017-Oct-09 11:27N 38°39' W 018°08'716.6
2017-Oct-09 11:00N 38°41' W 018°17'816.5
2017-Oct-09 10:31N 38°43' W 018°27'816.5
2017-Oct-09 10:00N 38°46' W 018°38'816.5
2017-Oct-09 09:30N 38°48' W 018°48'1316.6
2017-Oct-09 08:44N 38°52' W 019°03'416.4
2017-Oct-09 08:30N 38°53' W 019°08'918.1
2017-Oct-09 08:00N 38°55' W 019°19'916.9
2017-Oct-09 07:30N 38°58' W 019°30'1816.7
2017-Oct-09 06:25N 39°03' W 019°52'816.8
2017-Oct-09 05:56N 39°05' W 020°02'  
Track history (hours):
 
Tides and Currents Weather Stations Pressure Air Temp Water Temp Dewpoint Dewpoint Depression Visibility Wind Speed Wind Dir Waves Ship Positions

Firmament Ace

Last reported at 2017-Oct-13 12:33 UTC. Time now 2017-Oct-17 01:18 UTC.
Position N 36°07' E 014°50'.

Length 200 m; beam 32.3 m.

Type: Cargo ship. MMSI: 309656000.

Date/timePositionNaut miles runAvg speedWind from/ knotsBaromVisibWave heightAir tempDewpointWater temp
2017-Oct-13 12:33N 36°07' E 014°50'416.9
2017-Oct-13 12:17N 36°08' E 014°45'516.8
2017-Oct-13 12:00N 36°09' E 014°39'816.8
2017-Oct-13 11:30N 36°11' E 014°29'816.6
2017-Oct-13 11:00N 36°14' E 014°19'816.6
2017-Oct-13 10:30N 36°17' E 014°09'916.9
2017-Oct-13 10:00N 36°20' E 013°60'816.7
2017-Oct-13 09:30N 36°23' E 013°50'816.7
2017-Oct-13 09:00N 36°26' E 013°40'816.8
2017-Oct-13 08:30N 36°29' E 013°31'53516.7
2017-Oct-12 00:29N 37°04' E 002°25'816.9
2017-Oct-12 00:00N 37°03' E 002°15'917.0
2017-Oct-11 23:29N 37°01' E 002°04'817.1
2017-Oct-11 23:00N 36°59' E 001°54'817.0
2017-Oct-11 22:30N 36°57' E 001°43'1616.8
2017-Oct-11 21:33N 36°53' E 001°24'116.9
2017-Oct-11 21:30N 36°53' E 001°23'816.6
2017-Oct-11 21:00N 36°51' E 001°13'1016.4
2017-Oct-11 20:24N 36°48' E 001°01'615.9
2017-Oct-11 20:00N 36°47' E 000°53'816.6
2017-Oct-11 19:30N 36°45' E 000°43'1218.0
2017-Oct-11 18:49N 36°42' E 000°28'516.7
2017-Oct-11 18:30N 36°42' E 000°22'816.8
2017-Oct-11 18:00N 36°40' E 000°12'1016.8
2017-Oct-11 17:25N 36°37' W 000°00'816.8
2017-Oct-11 16:55N 36°35' W 000°11'28516.8
2017-Oct-10 23:59N 35°54' W 005°60'3316.0
2017-Oct-10 21:56N 35°55' W 006°40'715.9
2017-Oct-10 21:30N 35°56' W 006°49'816.0
2017-Oct-10 21:00N 35°56' W 006°59'816.4
2017-Oct-10 20:30N 35°58' W 007°09'918.5
2017-Oct-10 20:00N 35°60' W 007°20'817.1
2017-Oct-10 19:30N 36°02' W 007°30'816.4
2017-Oct-10 19:00N 36°03' W 007°40'816.4
2017-Oct-10 18:30N 36°05' W 007°50'816.2
2017-Oct-10 18:00N 36°07' W 007°60'816.1
2017-Oct-10 17:30N 36°08' W 008°09'816.4
2017-Oct-10 17:01N 36°10' W 008°19'816.3
2017-Oct-10 16:30N 36°11' W 008°29'816.3
2017-Oct-10 16:00N 36°13' W 008°39'816.7
2017-Oct-10 15:30N 36°15' W 008°49'916.9
2017-Oct-10 15:00N 36°16' W 008°60'1716.7
2017-Oct-10 14:00N 36°20' W 009°20'917.1
2017-Oct-10 13:30N 36°22' W 009°30'816.6
2017-Oct-10 13:01N 36°24' W 009°40'816.6
2017-Oct-10 12:30N 36°25' W 009°50'816.6
2017-Oct-10 12:00N 36°27' W 010°00'816.6
2017-Oct-10 11:30N 36°31' W 010°10'816.8
2017-Oct-10 11:00N 36°34' W 010°20'816.6
2017-Oct-10 10:30N 36°36' W 010°29'917.0
2017-Oct-10 10:00N 36°39' W 010°39'917.2
2017-Oct-10 09:31N 36°42' W 010°49'917.3
2017-Oct-10 09:00N 36°45' W 010°60'816.9
2017-Oct-10 08:30N 36°47' W 011°10'816.8
2017-Oct-10 08:00N 36°50' W 011°20'816.6
2017-Oct-10 07:30N 36°52' W 011°30'918.3
2017-Oct-10 07:00N 36°55' W 011°41'816.6
2017-Oct-10 06:30N 36°59' W 011°50'816.4
2017-Oct-10 06:01N 37°02' W 011°59'816.4
2017-Oct-10 05:31N 37°04' W 012°09'816.8
2017-Oct-10 05:00N 37°07' W 012°19'816.7
2017-Oct-10 04:30N 37°10' W 012°29'816.6
2017-Oct-10 04:00N 37°12' W 012°39'816.1
2017-Oct-10 03:30N 37°16' W 012°48'816.4
2017-Oct-10 03:00N 37°19' W 012°57'816.3
2017-Oct-10 02:30N 37°22' W 013°07'816.2
2017-Oct-10 02:00N 37°25' W 013°17'916.5
2017-Oct-10 01:28N 37°28' W 013°27'816.6
2017-Oct-10 01:00N 37°30' W 013°36'1116.7
2017-Oct-10 00:22N 37°34' W 013°49'617.0
2017-Oct-10 00:00N 37°36' W 013°56'817.0
2017-Oct-09 23:30N 37°39' W 014°06'816.7
2017-Oct-09 23:00N 37°42' W 014°16'916.5
2017-Oct-09 22:27N 37°45' W 014°27'716.4
2017-Oct-09 22:00N 37°47' W 014°36'816.5
2017-Oct-09 21:30N 37°50' W 014°46'816.7
2017-Oct-09 21:00N 37°53' W 014°56'816.5
2017-Oct-09 20:30N 37°56' W 015°06'918.2
2017-Oct-09 19:59N 37°58' W 015°17'816.9
2017-Oct-09 19:30N 38°01' W 015°27'816.4
2017-Oct-09 19:00N 38°03' W 015°37'816.3
2017-Oct-09 18:30N 38°05' W 015°47'816.1
2017-Oct-09 18:00N 38°08' W 015°56'816.2
2017-Oct-09 17:30N 38°10' W 016°06'816.4
2017-Oct-09 17:00N 38°12' W 016°16'816.5
2017-Oct-09 16:31N 38°15' W 016°26'816.6
2017-Oct-09 16:00N 38°17' W 016°37'816.5
2017-Oct-09 15:30N 38°19' W 016°47'2116.4
2017-Oct-09 14:13N 38°26' W 017°12'2316.5
2017-Oct-09 12:50N 38°32' W 017°41'616.3
2017-Oct-09 12:29N 38°34' W 017°47'816.4
2017-Oct-09 12:00N 38°36' W 017°57'916.6
2017-Oct-09 11:27N 38°39' W 018°08'716.6
2017-Oct-09 11:00N 38°41' W 018°17'816.5
2017-Oct-09 10:31N 38°43' W 018°27'816.5
2017-Oct-09 10:00N 38°46' W 018°38'816.5
2017-Oct-09 09:30N 38°48' W 018°48'1316.6
2017-Oct-09 08:44N 38°52' W 019°03'416.4
2017-Oct-09 08:30N 38°53' W 019°08'918.1
2017-Oct-09 08:00N 38°55' W 019°19'916.9
2017-Oct-09 07:30N 38°58' W 019°30'1816.7
2017-Oct-09 06:25N 39°03' W 019°52'816.8
2017-Oct-09 05:56N 39°05' W 020°02'  

Dump ship's entire track history